createdAt,value
2019-05-18T00:00:12.363Z,94.98
2019-05-18T00:01:16.163Z,95.16
2019-05-18T00:02:18.971Z,95.16
2019-05-18T00:03:22.670Z,95.24
2019-05-18T00:04:25.515Z,95.24
2019-05-18T00:05:28.874Z,94.66
2019-05-18T00:06:31.654Z,94.66
2019-05-18T00:07:35.160Z,94.78
2019-05-18T00:08:37.977Z,94.93
2019-05-18T00:09:41.636Z,94.93
2019-05-18T00:10:45.803Z,95.01
2019-05-18T00:11:49.215Z,95.11
2019-05-18T00:12:52.095Z,94.87
2019-05-18T00:13:55.882Z,94.66
2019-05-18T00:14:58.722Z,94.90
2019-05-18T00:16:02.333Z,94.50
2019-05-18T00:17:07.895Z,94.50
2019-05-18T00:18:10.590Z,94.72
2019-05-18T00:19:13.845Z,95.03
2019-05-18T00:20:19.551Z,95.03
2019-05-18T00:21:22.387Z,95.37
2019-05-18T00:22:26.598Z,95.66
2019-05-18T00:23:34.444Z,96.06
2019-05-18T00:24:38.317Z,96.06
2019-05-18T00:25:41.141Z,95.78
2019-05-18T00:26:46.736Z,95.07
2019-05-18T00:27:49.927Z,95.14
2019-05-18T00:28:53.604Z,95.03
2019-05-18T00:29:56.476Z,94.96
2019-05-18T00:30:59.884Z,94.96
2019-05-18T00:32:03.073Z,94.61
2019-05-18T00:33:06.535Z,94.61
2019-05-18T00:34:09.311Z,94.60
2019-05-18T00:35:13.066Z,94.60
2019-05-18T00:36:15.908Z,94.55
2019-05-18T00:37:21.739Z,94.55
2019-05-18T00:38:25.693Z,94.99
2019-05-18T00:39:29.154Z,95.23
2019-05-18T00:40:32.448Z,95.75
2019-05-18T00:41:36.178Z,95.96
2019-05-18T00:42:38.999Z,95.63
2019-05-18T00:43:42.437Z,95.76
2019-05-18T00:44:45.274Z,95.69
2019-05-18T00:45:48.602Z,95.69
2019-05-18T00:46:51.467Z,95.88
2019-05-18T00:47:55.166Z,95.85
2019-05-18T00:48:57.995Z,95.54
2019-05-18T00:50:01.450Z,95.21
2019-05-18T00:51:04.307Z,95.47
2019-05-18T00:52:07.771Z,95.87
2019-05-18T00:53:10.624Z,95.91
2019-05-18T00:54:14.256Z,95.91
2019-05-18T00:55:17.075Z,95.79
2019-05-18T00:56:20.429Z,95.69
2019-05-18T00:57:23.215Z,95.64
2019-05-18T00:58:26.676Z,95.73
2019-05-18T00:59:29.523Z,95.49
2019-05-18T01:00:37.559Z,96.00
2019-05-18T01:01:40.726Z,96.04
2019-05-18T01:02:45.465Z,95.68
2019-05-18T01:03:48.382Z,95.68
2019-05-18T01:04:51.789Z,96.07
2019-05-18T01:05:54.589Z,96.45
2019-05-18T01:07:01.454Z,96.19
2019-05-18T01:08:04.405Z,96.53
2019-05-18T01:09:08.206Z,96.53
2019-05-18T01:10:11.404Z,96.01
2019-05-18T01:11:15.201Z,96.01
2019-05-18T01:12:20.598Z,96.57
2019-05-18T01:13:24.223Z,96.50
2019-05-18T01:14:27.021Z,96.91
2019-05-18T01:15:30.613Z,96.91
2019-05-18T01:16:33.489Z,96.53
2019-05-18T01:17:36.957Z,96.23
2019-05-18T01:18:39.928Z,96.35
2019-05-18T01:19:43.568Z,96.28
2019-05-18T01:20:46.535Z,95.91
2019-05-18T01:21:50.006Z,95.91
2019-05-18T01:22:52.918Z,96.25
2019-05-18T01:23:56.355Z,96.49
2019-05-18T01:24:59.159Z,96.47
2019-05-18T01:26:02.834Z,96.47
2019-05-18T01:27:06.652Z,96.82
2019-05-18T01:28:10.092Z,96.15
2019-05-18T01:29:13.337Z,96.12
2019-05-18T01:30:16.681Z,96.17
2019-05-18T01:31:22.306Z,96.39
2019-05-18T01:32:27.898Z,96.38
2019-05-18T01:33:30.471Z,96.38
2019-05-18T01:34:34.209Z,96.38
2019-05-18T01:35:51.255Z,96.38
2019-05-18T01:36:54.602Z,96.71
2019-05-18T01:37:57.379Z,96.55
2019-05-18T01:39:01.373Z,96.88
2019-05-18T01:40:04.180Z,96.68
2019-05-18T01:41:07.647Z,96.68
2019-05-18T01:42:10.464Z,96.67
2019-05-18T01:43:13.969Z,96.77
2019-05-18T01:44:17.178Z,97.02
2019-05-18T01:45:24.746Z,97.12
2019-05-18T01:46:27.546Z,97.12
2019-05-18T01:47:30.946Z,96.92
2019-05-18T01:48:34.570Z,96.91
2019-05-18T01:49:41.911Z,96.74
2019-05-18T01:50:44.997Z,96.53
2019-05-18T01:51:50.271Z,96.61
2019-05-18T01:52:53.622Z,96.95
2019-05-18T01:53:57.094Z,97.01
2019-05-18T01:55:01.967Z,97.01
2019-05-18T01:56:05.141Z,96.59
2019-05-18T01:57:08.220Z,96.78
2019-05-18T01:58:19.668Z,97.07
2019-05-18T01:59:27.847Z,96.84
2019-05-18T02:00:31.172Z,96.84
2019-05-18T02:01:48.213Z,96.73
2019-05-18T02:02:45.655Z,96.57
2019-05-18T02:03:48.841Z,96.46
2019-05-18T02:04:52.221Z,96.44
2019-05-18T02:05:55.008Z,96.34
2019-05-18T02:06:59.341Z,96.34
2019-05-18T02:08:02.585Z,96.24
2019-05-18T02:09:07.354Z,96.38
2019-05-18T02:10:10.462Z,96.13
2019-05-18T02:11:13.835Z,96.13
2019-05-18T02:12:16.641Z,96.59
2019-05-18T02:13:20.470Z,96.32
2019-05-18T02:14:23.649Z,96.20
2019-05-18T02:15:28.169Z,96.20
2019-05-18T02:16:31.766Z,96.59
2019-05-18T02:17:35.439Z,96.83
2019-05-18T02:18:41.749Z,96.95
2019-05-18T02:19:45.210Z,97.10
2019-05-18T02:20:48.373Z,97.10
2019-05-18T02:21:52.074Z,96.94
2019-05-18T02:22:56.255Z,97.50
2019-05-18T02:23:59.644Z,97.21
2019-05-18T02:25:02.708Z,97.03
2019-05-18T02:26:06.238Z,97.74
2019-05-18T02:27:09.096Z,97.53
2019-05-18T02:28:12.625Z,97.32
2019-05-18T02:29:15.798Z,97.32
2019-05-18T02:30:19.149Z,97.76
2019-05-18T02:31:22.147Z,97.58
2019-05-18T02:32:25.944Z,98.09
2019-05-18T02:33:28.949Z,98.09
2019-05-18T02:34:33.590Z,97.52
2019-05-18T02:35:38.477Z,97.52
2019-05-18T02:36:41.876Z,97.79
2019-05-18T02:37:44.737Z,97.37
2019-05-18T02:38:50.053Z,97.37
2019-05-18T02:39:55.619Z,97.80
2019-05-18T02:40:59.339Z,98.10
2019-05-18T02:42:02.648Z,98.31
2019-05-18T02:43:05.996Z,98.60
2019-05-18T02:44:08.869Z,98.46
2019-05-18T02:45:12.297Z,98.69
2019-05-18T02:46:15.576Z,98.45
2019-05-18T02:47:19.332Z,98.30
2019-05-18T02:48:22.176Z,98.79
2019-05-18T02:49:25.528Z,98.79
2019-05-18T02:50:28.389Z,98.52
2019-05-18T02:51:31.765Z,98.13
2019-05-18T02:52:34.910Z,98.30
2019-05-18T02:53:38.827Z,98.19
2019-05-18T02:54:41.590Z,98.19
2019-05-18T02:55:46.866Z,98.25
2019-05-18T02:56:49.753Z,98.30
2019-05-18T02:57:53.159Z,98.30
2019-05-18T02:58:56.410Z,98.85
2019-05-18T03:00:03.202Z,98.64
2019-05-18T03:01:06.048Z,98.64
2019-05-18T03:02:10.116Z,98.73
2019-05-18T03:03:13.502Z,98.54
2019-05-18T03:04:20.099Z,98.22
2019-05-18T03:05:25.607Z,97.87
2019-05-18T03:06:31.865Z,97.60
2019-05-18T03:07:35.342Z,97.73
2019-05-18T03:08:40.911Z,98.49
2019-05-18T03:09:43.752Z,98.22
2019-05-18T03:10:47.129Z,98.22
2019-05-18T03:11:50.359Z,98.12
2019-05-18T03:12:54.331Z,98.12
2019-05-18T03:13:57.213Z,98.63
2019-05-18T03:15:00.548Z,98.32
2019-05-18T03:16:03.337Z,98.57
2019-05-18T03:17:06.855Z,98.41
2019-05-18T03:18:09.662Z,98.41
2019-05-18T03:19:13.437Z,98.75
2019-05-18T03:20:16.407Z,98.69
2019-05-18T03:21:19.817Z,98.35
2019-05-18T03:22:23.068Z,98.43
2019-05-18T03:23:26.560Z,98.43
2019-05-18T03:24:30.526Z,98.43
2019-05-18T03:25:34.170Z,98.48
2019-05-18T03:26:37.032Z,98.20
2019-05-18T03:27:40.516Z,97.65
2019-05-18T03:28:43.511Z,97.47
2019-05-18T03:29:46.865Z,97.96
2019-05-18T03:30:52.451Z,97.47
2019-05-18T03:31:56.137Z,97.62
2019-05-18T03:32:59.314Z,97.75
2019-05-18T03:34:02.784Z,97.56
2019-05-18T03:35:05.589Z,97.56
2019-05-18T03:36:09.471Z,97.52
2019-05-18T03:37:12.272Z,97.56
2019-05-18T03:38:15.942Z,97.51
2019-05-18T03:39:18.766Z,97.51
2019-05-18T03:40:22.164Z,97.33
2019-05-18T03:41:26.171Z,97.50
2019-05-18T03:42:31.598Z,97.50
2019-05-18T03:43:34.409Z,97.20
2019-05-18T03:44:38.194Z,97.10
2019-05-18T03:45:41.107Z,97.33
2019-05-18T03:46:44.621Z,97.00
2019-05-18T03:47:47.502Z,97.00
2019-05-18T03:48:50.983Z,96.66
2019-05-18T03:49:54.970Z,96.64
2019-05-18T03:50:59.138Z,96.28
2019-05-18T03:52:01.933Z,96.55
2019-05-18T03:53:05.467Z,95.83
2019-05-18T03:54:08.575Z,96.59
2019-05-18T03:55:11.936Z,96.51
2019-05-18T03:56:35.933Z,96.51
2019-05-18T03:57:39.190Z,97.75
2019-05-18T03:58:44.760Z,97.40
2019-05-18T03:59:47.640Z,97.40
2019-05-18T04:00:52.128Z,97.03
2019-05-18T04:01:54.940Z,97.15
2019-05-18T04:02:58.611Z,96.90
2019-05-18T04:04:01.517Z,96.87
2019-05-18T04:05:09.044Z,96.29
2019-05-18T04:06:11.866Z,96.18
2019-05-18T04:07:15.243Z,96.20
2019-05-18T04:08:18.063Z,96.40
2019-05-18T04:09:21.804Z,96.12
2019-05-18T04:10:24.637Z,96.12
2019-05-18T04:11:27.997Z,96.05
2019-05-18T04:12:30.831Z,96.05
2019-05-18T04:13:34.186Z,95.93
2019-05-18T04:14:37.210Z,96.01
2019-05-18T04:15:41.742Z,96.20
2019-05-18T04:16:44.552Z,96.20
2019-05-18T04:17:47.937Z,96.06
2019-05-18T04:18:53.060Z,95.62
2019-05-18T04:19:56.483Z,95.58
2019-05-18T04:20:59.369Z,95.39
2019-05-18T04:22:03.083Z,95.39
2019-05-18T04:23:05.932Z,95.36
2019-05-18T04:24:09.405Z,94.90
2019-05-18T04:25:12.237Z,95.24
2019-05-18T04:26:15.573Z,95.27
2019-05-18T04:27:19.798Z,95.37
2019-05-18T04:28:24.887Z,95.37
2019-05-18T04:29:27.745Z,95.43
2019-05-18T04:30:31.110Z,95.44
2019-05-18T04:31:33.999Z,94.81
2019-05-18T04:32:37.375Z,95.27
2019-05-18T04:33:40.258Z,95.47
2019-05-18T04:34:43.896Z,95.11
2019-05-18T04:35:46.701Z,95.16
2019-05-18T04:36:54.291Z,95.41
2019-05-18T04:37:57.120Z,95.06
2019-05-18T04:39:00.472Z,95.15
2019-05-18T04:40:03.318Z,95.38
2019-05-18T04:41:07.077Z,95.11
2019-05-18T04:42:10.037Z,95.11
2019-05-18T04:43:13.593Z,95.11
2019-05-18T04:44:16.707Z,95.31
2019-05-18T04:45:21.295Z,95.31
2019-05-18T04:46:24.307Z,94.82
2019-05-18T04:47:27.688Z,94.76
2019-05-18T04:48:32.159Z,94.74
2019-05-18T04:49:35.523Z,94.98
2019-05-18T04:50:39.569Z,94.83
2019-05-18T04:51:44.152Z,94.64
2019-05-18T04:52:46.996Z,94.64
2019-05-18T04:53:50.708Z,93.88
2019-05-18T04:54:56.437Z,94.47
2019-05-18T04:56:01.829Z,94.12
2019-05-18T04:57:04.503Z,94.12
2019-05-18T04:58:11.705Z,93.85
2019-05-18T04:59:15.268Z,94.48
2019-05-18T05:00:19.334Z,94.48
2019-05-18T05:01:22.171Z,93.57
2019-05-18T05:02:25.542Z,94.45
2019-05-18T05:03:28.527Z,94.45
2019-05-18T05:04:31.885Z,93.98
2019-05-18T05:05:34.769Z,93.92
2019-05-18T05:06:38.373Z,93.33
2019-05-18T05:07:41.206Z,94.11
2019-05-18T05:08:45.099Z,94.11
2019-05-18T05:09:48.018Z,93.70
2019-05-18T05:10:51.892Z,93.36
2019-05-18T05:11:54.738Z,93.51
2019-05-18T05:12:58.424Z,93.34
2019-05-18T05:14:01.409Z,93.24
2019-05-18T05:15:05.220Z,93.24
2019-05-18T05:16:13.083Z,92.81
2019-05-18T05:17:19.418Z,93.29
2019-05-18T05:18:25.747Z,92.88
2019-05-18T05:19:29.416Z,93.10
2019-05-18T05:20:32.314Z,92.01
2019-05-18T05:21:35.673Z,92.19
2019-05-18T05:22:44.546Z,91.88
2019-05-18T05:24:05.463Z,92.34
2019-05-18T05:25:27.302Z,92.18
2019-05-18T05:26:41.626Z,91.81
2019-05-18T05:27:46.202Z,91.67
2019-05-18T05:29:09.790Z,91.46
2019-05-18T05:43:50.906Z,90.29
2019-05-18T05:44:54.663Z,90.52
2019-05-18T05:45:57.581Z,90.52
2019-05-18T05:47:06.995Z,90.39
2019-05-18T05:48:10.166Z,90.34
2019-05-18T05:49:13.622Z,90.41
2019-05-18T05:50:34.134Z,89.93
2019-05-18T05:51:28.705Z,89.55
2019-05-18T05:52:31.521Z,89.35
2019-05-18T05:53:35.049Z,89.27
2019-05-18T05:54:40.481Z,89.36
2019-05-18T05:55:43.909Z,89.36
2019-05-18T05:56:52.795Z,89.35
2019-05-18T05:57:56.169Z,89.43
2019-05-18T05:58:59.070Z,88.77
2019-05-18T06:00:02.547Z,88.77
2019-05-18T06:01:06.727Z,88.53
2019-05-18T06:02:10.171Z,88.64
2019-05-18T06:03:13.459Z,88.23
2019-05-18T06:04:16.889Z,88.23
2019-05-18T06:05:19.839Z,88.43
2019-05-18T06:06:23.310Z,88.27
2019-05-18T06:07:26.613Z,88.27
2019-05-18T06:08:31.544Z,88.06
2019-05-18T06:09:37.467Z,88.20
2019-05-18T06:10:40.845Z,87.97
2019-05-18T06:11:46.294Z,87.76
2019-05-18T06:12:52.215Z,87.60
2019-05-18T06:13:55.466Z,87.60
2019-05-18T06:14:59.035Z,86.67
2019-05-18T06:16:01.959Z,87.18
2019-05-18T06:17:08.301Z,87.18
2019-05-18T06:18:10.020Z,86.17
2019-05-18T06:19:13.544Z,86.02
2019-05-18T06:20:16.851Z,85.49
2019-05-18T06:21:20.381Z,85.49
2019-05-18T06:22:23.228Z,85.02
2019-05-18T06:23:26.804Z,84.93
2019-05-18T06:24:30.189Z,84.93
2019-05-18T06:25:34.485Z,85.09
2019-05-18T06:26:38.852Z,85.75
2019-05-18T06:27:43.018Z,86.05
2019-05-18T06:28:46.049Z,85.22
2019-05-18T06:29:51.823Z,85.22
2019-05-18T06:30:54.493Z,84.73
2019-05-18T06:31:59.644Z,84.20
2019-05-18T06:33:02.774Z,84.00
2019-05-18T06:34:06.475Z,84.00
2019-05-18T06:35:11.152Z,84.56
2019-05-18T06:36:16.040Z,83.65
2019-05-18T06:37:19.061Z,84.06
2019-05-18T06:38:22.532Z,84.04
2019-05-18T06:39:26.066Z,83.90
2019-05-18T06:40:31.465Z,83.90
2019-05-18T06:41:35.088Z,83.32
2019-05-18T06:42:52.268Z,83.32
2019-05-18T06:43:58.245Z,82.81
2019-05-18T06:45:00.364Z,82.81
2019-05-18T06:46:03.753Z,82.10
2019-05-18T06:47:07.129Z,81.78
2019-05-18T06:48:10.203Z,81.48
2019-05-18T06:49:13.732Z,81.48
2019-05-18T06:50:18.741Z,80.54
2019-05-18T06:51:21.911Z,80.37
2019-05-18T06:52:24.882Z,80.02
2019-05-18T06:53:28.400Z,79.57
2019-05-18T06:54:35.503Z,79.57
2019-05-18T06:55:45.677Z,78.31
2019-05-18T06:56:51.867Z,78.31
2019-05-18T06:57:58.395Z,77.81
2019-05-18T06:59:06.393Z,76.63
2019-05-18T07:00:11.137Z,76.75
2019-05-18T07:01:17.158Z,76.75
2019-05-18T07:02:21.396Z,76.26
2019-05-18T07:03:24.561Z,75.50
2019-05-18T07:04:45.702Z,74.87
2019-05-18T07:05:49.914Z,73.92
2019-05-18T07:06:53.818Z,73.92
2019-05-18T07:07:56.815Z,73.46
2019-05-18T07:09:00.186Z,73.36
2019-05-18T07:10:06.243Z,72.80
2019-05-18T07:11:10.506Z,72.72
2019-05-18T07:12:13.342Z,72.72
2019-05-18T07:13:19.697Z,72.57
2019-05-18T07:14:25.767Z,71.96
2019-05-18T07:15:27.658Z,71.85
2019-05-18T07:16:37.319Z,71.85
2019-05-18T07:17:40.995Z,70.89
2019-05-18T07:18:43.900Z,70.00
2019-05-18T07:19:47.413Z,69.33
2019-05-18T07:20:50.328Z,69.33
2019-05-18T07:21:55.149Z,69.30
2019-05-18T07:22:57.950Z,68.85
2019-05-18T07:24:01.759Z,68.83
2019-05-18T07:25:04.609Z,68.83
2019-05-18T07:26:08.071Z,67.65
2019-05-18T07:27:11.003Z,67.35
2019-05-18T07:28:14.399Z,67.35
2019-05-18T07:29:20.162Z,67.53
2019-05-18T07:30:23.849Z,66.94
2019-05-18T07:31:29.831Z,66.89
2019-05-18T07:32:33.305Z,66.05
2019-05-18T07:33:36.163Z,65.18
2019-05-18T07:34:41.814Z,64.72
2019-05-18T07:35:45.320Z,65.04
2019-05-18T07:36:50.134Z,64.78
2019-05-18T07:37:53.020Z,64.29
2019-05-18T07:38:56.446Z,64.02
2019-05-18T07:40:02.377Z,63.99
2019-05-18T07:41:05.945Z,64.11
2019-05-18T07:42:08.796Z,63.25
2019-05-18T07:43:12.698Z,63.48
2019-05-18T07:44:15.570Z,62.84
2019-05-18T07:45:19.034Z,62.19
2019-05-18T07:46:21.836Z,62.91
2019-05-18T07:47:25.298Z,62.99
2019-05-18T07:48:45.748Z,62.99
2019-05-18T07:49:49.166Z,64.17
2019-05-18T07:50:52.015Z,64.33
2019-05-18T07:51:55.405Z,63.98
2019-05-18T07:52:58.700Z,63.98
2019-05-18T07:54:02.226Z,63.83
2019-05-18T07:55:05.527Z,63.47
2019-05-18T07:56:08.940Z,63.31
2019-05-18T07:57:11.793Z,63.31
2019-05-18T07:58:15.615Z,62.12
2019-05-18T07:59:19.990Z,62.02
2019-05-18T08:00:24.230Z,61.78
2019-05-18T08:01:27.492Z,61.78
2019-05-18T08:02:37.894Z,60.86
2019-05-18T08:03:40.661Z,60.63
2019-05-18T08:04:44.086Z,60.67
2019-05-18T08:05:51.650Z,61.13
2019-05-18T08:06:58.595Z,60.98
2019-05-18T08:08:04.485Z,59.63
2019-05-18T08:09:07.854Z,58.69
2019-05-18T08:10:11.785Z,58.55
2019-05-18T08:11:15.638Z,58.87
2019-05-18T08:12:19.606Z,58.63
2019-05-18T08:13:28.727Z,58.63
2019-05-18T08:14:33.995Z,57.25
2019-05-18T08:15:37.765Z,56.61
2019-05-18T08:16:40.666Z,56.53
2019-05-18T08:17:49.066Z,56.36
2019-05-18T08:18:51.919Z,55.96
2019-05-18T08:19:55.850Z,55.96
2019-05-18T08:21:00.911Z,55.56
2019-05-18T08:22:06.758Z,54.62
2019-05-18T08:23:09.710Z,53.92
2019-05-18T08:24:13.059Z,54.77
2019-05-18T08:25:31.934Z,54.77
2019-05-18T08:26:35.524Z,53.62
2019-05-18T08:27:42.812Z,53.24
2019-05-18T08:28:46.271Z,53.20
2019-05-18T08:29:49.267Z,53.27
2019-05-18T08:30:54.883Z,53.08
2019-05-18T08:31:58.145Z,52.86
2019-05-18T08:33:01.566Z,53.27
2019-05-18T08:34:07.267Z,52.94
2019-05-18T08:35:11.527Z,51.38
2019-05-18T08:36:14.409Z,52.19
2019-05-18T08:37:17.843Z,51.46
2019-05-18T08:38:21.074Z,51.21
2019-05-18T08:39:27.742Z,51.21
2019-05-18T08:40:30.720Z,52.05
2019-05-18T08:41:37.151Z,53.28
2019-05-18T08:42:43.018Z,52.79
2019-05-18T08:43:46.419Z,52.19
2019-05-18T08:44:53.874Z,51.37
2019-05-18T08:45:57.964Z,51.79
2019-05-18T08:47:01.637Z,51.79
2019-05-18T08:48:06.410Z,51.50
2019-05-18T08:49:14.305Z,51.92
2019-05-18T08:50:19.782Z,51.92
2019-05-18T08:51:24.516Z,50.77
2019-05-18T08:52:27.734Z,50.85
2019-05-18T08:53:30.688Z,51.90
2019-05-18T08:54:38.638Z,51.90
2019-05-18T08:55:43.671Z,51.20
2019-05-18T08:56:47.015Z,51.49
2019-05-18T08:57:52.249Z,50.70
2019-05-18T08:58:55.269Z,50.70
2019-05-18T09:00:00.183Z,50.71
2019-05-18T09:01:03.665Z,50.03
2019-05-18T09:02:06.481Z,49.27
2019-05-18T09:03:09.837Z,49.28
2019-05-18T09:04:12.966Z,49.14
2019-05-18T09:05:16.454Z,50.01
2019-05-18T09:06:19.384Z,50.01
2019-05-18T09:07:22.728Z,49.24
2019-05-18T09:08:26.835Z,48.29
2019-05-18T09:09:32.913Z,46.40
2019-05-18T09:10:36.538Z,47.79
2019-05-18T09:11:42.635Z,48.20
2019-05-18T09:12:45.437Z,49.19
2019-05-18T09:13:55.104Z,49.19
2019-05-18T09:15:00.410Z,49.18
2019-05-18T09:16:03.489Z,49.18
2019-05-18T09:17:06.450Z,49.10
2019-05-18T09:18:11.386Z,49.10
2019-05-18T09:19:14.412Z,46.83
2019-05-18T09:20:22.075Z,46.83
2019-05-18T09:21:24.951Z,48.57
2019-05-18T09:22:29.725Z,48.57
2019-05-18T09:23:37.021Z,47.74
2019-05-18T09:24:42.087Z,47.74
2019-05-18T09:25:50.442Z,48.42
2019-05-18T09:26:54.204Z,48.54
2019-05-18T09:28:06.186Z,48.54
2019-05-18T09:29:09.551Z,47.95
2019-05-18T09:30:13.029Z,47.95
2019-05-18T09:31:16.530Z,48.14
2019-05-18T09:32:20.527Z,48.14
2019-05-18T09:33:26.960Z,46.16
2019-05-18T09:34:29.691Z,46.38
2019-05-18T09:35:39.996Z,44.84
2019-05-18T09:36:45.172Z,45.72
2019-05-18T09:37:48.768Z,45.62
2019-05-18T09:38:51.755Z,45.44
2019-05-18T09:39:56.427Z,44.99
2019-05-18T09:41:01.823Z,45.59
2019-05-18T09:42:05.521Z,45.45
2019-05-18T09:43:11.380Z,45.86
2019-05-18T09:44:20.072Z,45.38
2019-05-18T09:45:26.024Z,44.75
2019-05-18T09:46:29.260Z,43.75
2019-05-18T09:47:34.766Z,44.46
2019-05-18T09:48:38.102Z,43.81
2019-05-18T09:49:41.805Z,44.02
2019-05-18T09:50:48.228Z,42.86
2019-05-18T09:51:51.186Z,42.53
2019-05-18T09:52:54.562Z,42.54
2019-05-18T09:54:00.445Z,42.54
2019-05-18T09:55:06.914Z,41.90
2019-05-18T09:56:13.257Z,41.90
2019-05-18T09:57:23.279Z,42.10
2019-05-18T09:58:37.831Z,40.88
2019-05-18T09:59:45.318Z,41.25
2019-05-18T10:00:48.216Z,42.06
2019-05-18T10:01:56.375Z,40.85
2019-05-18T10:02:59.492Z,41.84
2019-05-18T10:04:08.114Z,42.62
2019-05-18T10:05:13.442Z,42.62
2019-05-18T10:06:19.669Z,43.26
2019-05-18T10:07:28.876Z,42.40
2019-05-18T10:08:32.373Z,41.52
2019-05-18T10:09:39.424Z,41.52
2019-05-18T10:10:42.336Z,40.90
2019-05-18T10:11:46.513Z,40.48
2019-05-18T10:12:58.429Z,40.54
2019-05-18T10:14:02.859Z,40.46
2019-05-18T10:15:06.146Z,41.93
2019-05-18T10:16:14.232Z,41.83
2019-05-18T10:17:17.851Z,42.30
2019-05-18T10:18:21.919Z,42.30
2019-05-18T10:19:27.377Z,42.30
2019-05-18T10:20:30.108Z,43.03
2019-05-18T10:21:33.524Z,41.65
2019-05-18T10:22:36.847Z,40.97
2019-05-18T10:23:42.253Z,42.13
2019-05-18T10:24:45.263Z,42.17
2019-05-18T10:25:48.613Z,41.17
2019-05-18T10:26:51.501Z,41.17
2019-05-18T10:27:55.004Z,41.58
2019-05-18T10:28:57.787Z,41.01
2019-05-18T10:42:52.498Z,40.52
2019-05-18T10:43:57.225Z,39.90
2019-05-18T10:45:00.257Z,39.39
2019-05-18T10:46:04.164Z,39.39
2019-05-18T10:47:07.303Z,39.48
2019-05-18T10:48:11.107Z,40.23
2019-05-18T10:49:14.423Z,40.23
2019-05-18T10:50:17.866Z,40.83
2019-05-18T10:51:23.110Z,40.83
2019-05-18T10:52:29.143Z,42.66
2019-05-18T10:53:31.944Z,42.66
2019-05-18T10:54:39.340Z,42.41
2019-05-18T10:55:44.185Z,42.75
2019-05-18T10:56:47.282Z,42.12
2019-05-18T10:57:55.783Z,42.84
2019-05-18T10:58:59.207Z,42.58
2019-05-18T11:00:04.104Z,41.74
2019-05-18T11:01:10.241Z,41.74
2019-05-18T11:02:15.295Z,41.17
2019-05-18T11:03:18.637Z,41.17
2019-05-18T11:04:24.288Z,40.89
2019-05-18T11:05:27.794Z,41.91
2019-05-18T11:06:32.234Z,42.01
2019-05-18T11:07:37.110Z,42.01
2019-05-18T11:08:39.994Z,42.59
2019-05-18T11:09:45.043Z,43.20
2019-05-18T11:10:49.708Z,43.74
2019-05-18T11:11:54.376Z,44.07
2019-05-18T11:13:00.278Z,44.07
2019-05-18T11:14:04.425Z,42.67
2019-05-18T11:15:07.775Z,42.46
2019-05-18T11:16:11.288Z,42.49
2019-05-18T11:17:22.008Z,42.16
2019-05-18T11:18:25.372Z,42.44
2019-05-18T11:19:28.212Z,42.68
2019-05-18T11:20:34.987Z,42.52
2019-05-18T11:21:38.934Z,42.83
2019-05-18T11:22:42.302Z,42.92
2019-05-18T11:23:48.058Z,42.15
2019-05-18T11:24:51.563Z,41.32
2019-05-18T11:25:56.382Z,41.32
2019-05-18T11:27:00.005Z,42.08
2019-05-18T11:28:03.289Z,40.88
2019-05-18T11:29:06.711Z,41.11
2019-05-18T11:30:09.834Z,39.72
2019-05-18T11:31:13.548Z,39.72
2019-05-18T11:32:18.574Z,39.01
2019-05-18T11:33:22.675Z,40.60
2019-05-18T11:34:25.514Z,40.60
2019-05-18T11:35:31.249Z,40.19
2019-05-18T11:36:37.238Z,40.44
2019-05-18T11:37:40.658Z,40.00
2019-05-18T11:38:46.818Z,39.54
2019-05-18T11:39:50.227Z,39.62
2019-05-18T11:40:53.686Z,39.62
2019-05-18T11:41:58.231Z,38.71
2019-05-18T11:43:01.552Z,38.99
2019-05-18T11:44:10.782Z,38.99
2019-05-18T11:45:14.682Z,40.17
2019-05-18T11:46:33.467Z,40.10
2019-05-18T11:47:36.252Z,39.72
2019-05-18T11:48:39.829Z,40.77
2019-05-18T11:49:42.740Z,41.02
2019-05-18T11:50:47.579Z,40.91
2019-05-18T11:51:50.540Z,41.40
2019-05-18T11:52:53.973Z,41.70
2019-05-18T11:53:59.515Z,41.31
2019-05-18T11:55:04.506Z,41.31
2019-05-18T11:56:07.555Z,40.64
2019-05-18T11:57:14.773Z,40.63
2019-05-18T11:58:18.217Z,39.28
2019-05-18T11:59:24.048Z,40.43
2019-05-18T12:00:32.230Z,40.43
2019-05-18T12:01:33.244Z,40.14
2019-05-18T12:02:39.777Z,40.14
2019-05-18T12:03:46.381Z,40.79
2019-05-18T12:04:50.179Z,40.53
2019-05-18T12:06:02.861Z,40.97
2019-05-18T12:07:06.320Z,41.15
2019-05-18T12:08:09.829Z,39.87
2019-05-18T12:09:12.696Z,39.87
2019-05-18T12:10:18.329Z,40.59
2019-05-18T12:11:24.237Z,40.59
2019-05-18T12:12:29.046Z,41.49
2019-05-18T12:13:32.158Z,38.95
2019-05-18T12:14:37.880Z,39.06
2019-05-18T12:15:43.769Z,39.06
2019-05-18T12:16:47.624Z,39.60
2019-05-18T12:17:50.679Z,39.60
2019-05-18T12:18:57.748Z,38.84
2019-05-18T12:20:04.162Z,38.92
2019-05-18T12:21:07.979Z,38.59
2019-05-18T12:22:11.148Z,39.20
2019-05-18T12:23:14.908Z,39.14
2019-05-18T12:24:17.877Z,39.18
2019-05-18T12:25:21.360Z,39.18
2019-05-18T12:26:24.271Z,39.58
2019-05-18T12:27:28.415Z,39.49
2019-05-18T12:28:31.591Z,39.49
2019-05-18T12:29:35.388Z,40.32
2019-05-18T12:30:39.918Z,40.32
2019-05-18T12:31:43.595Z,39.63
2019-05-18T12:32:46.411Z,39.59
2019-05-18T12:33:50.015Z,39.54
2019-05-18T12:34:59.911Z,39.31
2019-05-18T12:36:03.370Z,39.31
2019-05-18T12:37:06.545Z,39.59
2019-05-18T12:38:16.395Z,40.30
2019-05-18T12:39:22.204Z,39.73
2019-05-18T12:40:28.050Z,40.01
2019-05-18T12:41:31.539Z,39.88
2019-05-18T12:42:39.427Z,40.00
2019-05-18T12:43:42.398Z,39.75
2019-05-18T12:44:51.564Z,39.92
2019-05-18T12:45:57.243Z,40.16
2019-05-18T12:47:03.244Z,40.16
2019-05-18T12:48:12.923Z,39.48
2019-05-18T12:49:19.118Z,40.52
2019-05-18T12:50:24.190Z,39.89
2019-05-18T12:51:27.566Z,40.58
2019-05-18T12:52:31.962Z,40.58
2019-05-18T12:53:35.315Z,39.14
2019-05-18T12:54:46.117Z,39.05
2019-05-18T12:55:44.650Z,38.88
2019-05-18T12:56:53.046Z,38.37
2019-05-18T12:57:56.358Z,38.41
2019-05-18T12:59:01.842Z,38.48
2019-05-18T13:00:07.672Z,38.99
2019-05-18T13:01:13.828Z,39.80
2019-05-18T13:02:20.299Z,40.28
2019-05-18T13:03:23.240Z,40.51
2019-05-18T13:04:26.633Z,40.31
2019-05-18T13:05:38.662Z,40.31
2019-05-18T13:06:43.508Z,41.36
2019-05-18T13:07:46.804Z,41.42
2019-05-18T13:08:50.209Z,41.15
2019-05-18T13:09:53.053Z,41.15
2019-05-18T13:10:56.482Z,41.06
2019-05-18T13:11:59.587Z,40.95
2019-05-18T13:13:03.954Z,40.19
2019-05-18T13:14:10.395Z,40.19
2019-05-18T13:15:15.556Z,39.32
2019-05-18T13:16:18.915Z,39.45
2019-05-18T13:17:25.014Z,40.52
2019-05-18T13:18:27.897Z,40.30
2019-05-18T13:19:31.273Z,39.32
2019-05-18T13:20:34.530Z,39.74
2019-05-18T13:21:37.795Z,39.30
2019-05-18T13:22:46.385Z,40.12
2019-05-18T13:23:49.778Z,40.12
2019-05-18T13:24:55.248Z,40.32
2019-05-18T13:26:02.312Z,39.53
2019-05-18T13:27:08.860Z,38.97
2019-05-18T13:28:12.965Z,38.75
2019-05-18T13:29:15.759Z,38.29
2019-05-18T13:30:21.903Z,38.23
2019-05-18T13:31:24.748Z,39.42
2019-05-18T13:32:32.717Z,39.42
2019-05-18T13:33:40.518Z,39.83
2019-05-18T13:34:46.713Z,39.83
2019-05-18T13:35:49.651Z,39.24
2019-05-18T13:36:53.018Z,40.84
2019-05-18T13:38:05.009Z,42.02
2019-05-18T13:39:08.349Z,43.20
2019-05-18T13:40:16.161Z,42.58
2019-05-18T13:41:19.389Z,42.21
2019-05-18T13:42:22.634Z,40.99
2019-05-18T13:43:26.005Z,40.87
2019-05-18T13:44:28.873Z,40.14
2019-05-18T13:45:32.366Z,39.58
2019-05-18T13:46:35.557Z,39.80
2019-05-18T13:47:39.858Z,40.07
2019-05-18T13:48:42.645Z,40.85
2019-05-18T13:49:46.087Z,41.38
2019-05-18T13:50:48.959Z,41.06
2019-05-18T13:51:52.445Z,41.59
2019-05-18T13:53:00.419Z,42.29
2019-05-18T13:54:24.226Z,42.29
2019-05-18T13:55:29.928Z,42.04
2019-05-18T13:56:35.047Z,42.04
2019-05-18T13:57:38.498Z,41.62
2019-05-18T13:58:44.388Z,40.70
2019-05-18T13:59:47.476Z,42.18
2019-05-18T14:00:55.433Z,42.45
2019-05-18T14:01:58.223Z,42.54
2019-05-18T14:03:01.659Z,42.54
2019-05-18T14:04:04.502Z,41.56
2019-05-18T14:05:11.415Z,42.12
2019-05-18T14:06:14.754Z,42.59
2019-05-18T14:07:18.216Z,42.59
2019-05-18T14:08:29.930Z,42.66
2019-05-18T14:09:33.326Z,41.79
2019-05-18T14:10:36.236Z,41.52
2019-05-18T14:11:40.145Z,40.05
2019-05-18T14:12:43.582Z,40.86
2019-05-18T14:13:47.363Z,42.43
2019-05-18T14:14:50.537Z,41.00
2019-05-18T14:15:53.978Z,40.60
2019-05-18T14:16:56.804Z,39.57